Terminal Aerodrome Forecast
Issued by NWS

Home | Current Version | Previous Version | Text Only | Print | Product List | Glossary Off
Versions: 1 2 3 4 5 6 7 8 9 10 11 12 13 14

000
FTUS43 KICT 211134
TAFSLN
TAF
KSLN 211134Z 2112/2212 26008KT P6SM FEW250
     FM220200 19005KT P6SM SCT200
     FM220700 19006KT P6SM VCSH SCT050 BKN100=

USA.gov is the U.S. government's official web portal to all federal, state and local government web resources and services.